Terminal Aerodrome Forecast
Issued by NWS Sioux Falls, SD

Home | Current Version | Previous Version | Text Only | Print | Product List | Glossary On
Versions: 1 2 3 4 5 6 7 8 9 10 11 12 13 14 15
000
FTUS43 KFSD 231722
TAFHON
TAF
KHON 231722Z 2318/2418 33027G36KT P6SM SCT050 BKN070
     FM240000 34020G28KT P6SM BKN070
     FM240400 33019G25KT P6SM SCT150
     FM241500 33021G32KT P6SM FEW200=

USA.gov is the U.S. government's official web portal to all federal, state and local government web resources and services.